createdAt,value
2019-05-15T00:00:32.598Z,92.46
2019-05-15T00:01:29.564Z,91.31
2019-05-15T00:02:29.531Z,91.50
2019-05-15T00:03:29.498Z,91.13
2019-05-15T00:04:29.471Z,91.17
2019-05-15T00:05:29.437Z,91.50
2019-05-15T00:06:29.463Z,91.13
2019-05-15T00:07:29.589Z,91.13
2019-05-15T00:08:29.335Z,90.74
2019-05-15T00:09:29.319Z,92.46
2019-05-15T00:10:29.355Z,92.36
2019-05-15T00:11:31.193Z,92.46
2019-05-15T00:12:31.196Z,91.50
2019-05-15T00:13:29.177Z,91.41
2019-05-15T00:14:29.148Z,90.84
2019-05-15T00:15:29.117Z,91.69
2019-05-15T00:16:29.218Z,91.41
2019-05-15T00:17:29.051Z,90.45
2019-05-15T00:18:29.103Z,91.50
2019-05-15T00:19:28.983Z,90.93
2019-05-15T00:20:29.439Z,90.17
2019-05-15T00:21:29.008Z,90.45
2019-05-15T00:22:29.244Z,90.17
2019-05-15T00:23:29.255Z,89.60
2019-05-15T00:24:28.962Z,89.03
2019-05-15T00:25:28.801Z,88.98
2019-05-15T00:26:31.705Z,90.17
2019-05-15T00:27:28.740Z,89.79
2019-05-15T00:28:28.694Z,90.93
2019-05-15T00:29:29.001Z,89.60
2019-05-15T00:30:28.989Z,89.40
2019-05-15T00:31:29.132Z,90.12
2019-05-15T00:32:28.566Z,90.31
2019-05-15T00:33:28.743Z,90.41
2019-05-15T00:34:28.665Z,91.03
2019-05-15T00:35:30.627Z,90.50
2019-05-15T00:36:28.701Z,90.31
2019-05-15T00:37:28.891Z,90.45
2019-05-15T00:38:28.367Z,90.45
2019-05-15T00:39:28.525Z,89.55
2019-05-15T00:40:28.868Z,89.36
2019-05-15T00:41:28.302Z,90.70
2019-05-15T00:42:28.492Z,91.31
2019-05-15T00:43:29.120Z,90.08
2019-05-15T00:44:28.167Z,89.46
2019-05-15T00:45:28.135Z,89.94
2019-05-15T00:46:29.056Z,89.94
2019-05-15T00:47:28.694Z,90.41
2019-05-15T00:48:29.209Z,90.55
2019-05-15T00:49:28.959Z,90.17
2019-05-15T00:50:28.728Z,89.65
2019-05-15T00:51:28.483Z,90.31
2019-05-15T00:52:28.290Z,90.12
2019-05-15T00:53:28.397Z,89.94
2019-05-15T00:54:28.247Z,89.94
2019-05-15T00:55:28.459Z,90.31
2019-05-15T00:56:28.442Z,91.17
2019-05-15T00:57:28.338Z,90.31
2019-05-15T00:58:28.384Z,90.41
2019-05-15T00:59:30.056Z,93.08
2019-05-15T01:00:28.202Z,92.22
2019-05-15T01:01:28.706Z,91.36
2019-05-15T01:02:28.666Z,91.17
2019-05-15T01:03:27.896Z,91.46
2019-05-15T01:04:28.048Z,90.50
2019-05-15T01:05:28.014Z,90.12
2019-05-15T01:06:28.415Z,90.46
2019-05-15T01:07:28.153Z,91.03
2019-05-15T01:08:28.490Z,90.94
2019-05-15T01:09:29.212Z,91.03
2019-05-15T01:10:28.713Z,91.13
2019-05-15T01:11:28.485Z,91.13
2019-05-15T01:12:29.140Z,91.22
2019-05-15T01:13:28.189Z,91.22
2019-05-15T01:14:27.867Z,91.03
2019-05-15T01:15:29.037Z,91.99
2019-05-15T01:16:28.102Z,91.22
2019-05-15T01:17:29.018Z,91.22
2019-05-15T01:18:29.107Z,91.31
2019-05-15T01:19:28.706Z,92.18
2019-05-15T01:20:28.559Z,92.36
2019-05-15T01:21:27.929Z,92.84
2019-05-15T01:22:28.628Z,91.89
2019-05-15T01:23:28.253Z,91.99
2019-05-15T01:24:28.313Z,92.74
2019-05-15T01:25:28.031Z,92.74
2019-05-15T01:26:28.202Z,93.51
2019-05-15T01:27:29.019Z,93.60
2019-05-15T01:28:28.746Z,93.13
2019-05-15T01:29:38.418Z,91.89
2019-05-15T01:30:28.576Z,92.55
2019-05-15T01:31:28.580Z,93.70
2019-05-15T01:32:28.409Z,93.13
2019-05-15T01:33:28.292Z,93.13
2019-05-15T01:34:29.245Z,93.51
2019-05-15T01:35:28.568Z,93.32
2019-05-15T01:36:28.681Z,93.79
2019-05-15T01:37:28.182Z,94.65
2019-05-15T01:38:28.037Z,94.27
2019-05-15T01:39:26.392Z,93.70
2019-05-15T01:40:28.750Z,93.03
2019-05-15T01:41:28.203Z,93.60
2019-05-15T01:42:28.020Z,93.98
2019-05-15T01:43:28.923Z,93.18
2019-05-15T01:44:28.553Z,94.08
2019-05-15T01:45:28.442Z,95.51
2019-05-15T01:46:28.381Z,95.12
2019-05-15T01:47:28.090Z,93.89
2019-05-15T01:48:28.161Z,93.70
2019-05-15T01:49:27.931Z,93.79
2019-05-15T01:50:26.012Z,94.08
2019-05-15T01:51:28.400Z,94.56
2019-05-15T01:52:27.959Z,95.32
2019-05-15T01:53:25.914Z,94.56
2019-05-15T01:54:25.875Z,93.98
2019-05-15T01:55:28.257Z,93.84
2019-05-15T01:56:25.846Z,93.94
2019-05-15T01:57:25.779Z,94.84
2019-05-15T01:58:25.763Z,94.65
2019-05-15T01:59:25.714Z,95.79
2019-05-15T02:00:27.849Z,95.51
2019-05-15T02:01:28.186Z,94.84
2019-05-15T02:02:27.917Z,95.70
2019-05-15T02:03:25.600Z,96.36
2019-05-15T02:04:25.606Z,95.41
2019-05-15T02:05:25.518Z,95.41
2019-05-15T02:06:25.486Z,94.17
2019-05-15T02:07:25.452Z,94.84
2019-05-15T02:08:25.433Z,94.84
2019-05-15T02:09:27.913Z,94.37
2019-05-15T02:10:25.360Z,94.89
2019-05-15T02:11:25.324Z,94.65
2019-05-15T02:12:25.293Z,94.13
2019-05-15T02:13:25.254Z,95.08
2019-05-15T02:14:25.293Z,95.17
2019-05-15T02:15:25.195Z,95.65
2019-05-15T02:16:25.169Z,95.56
2019-05-15T02:17:25.124Z,96.98
2019-05-15T02:18:25.103Z,96.94
2019-05-15T02:19:25.053Z,95.94
2019-05-15T02:20:25.029Z,95.36
2019-05-15T02:21:24.994Z,95.70
2019-05-15T02:22:25.031Z,95.36
2019-05-15T02:23:24.929Z,96.22
2019-05-15T02:24:24.894Z,96.12
2019-05-15T02:25:24.862Z,95.70
2019-05-15T02:26:24.838Z,95.17
2019-05-15T02:27:24.790Z,94.70
2019-05-15T02:28:24.770Z,95.27
2019-05-15T02:29:25.284Z,96.12
2019-05-15T02:30:28.821Z,96.31
2019-05-15T02:31:24.666Z,97.08
2019-05-15T02:32:24.628Z,96.51
2019-05-15T02:33:24.591Z,95.65
2019-05-15T02:34:24.597Z,95.94
2019-05-15T02:35:24.545Z,96.51
2019-05-15T02:36:24.499Z,96.22
2019-05-15T02:37:24.465Z,95.56
2019-05-15T02:38:24.523Z,95.75
2019-05-15T02:39:24.417Z,95.56
2019-05-15T02:40:24.375Z,95.84
2019-05-15T02:41:24.334Z,95.46
2019-05-15T02:42:24.353Z,96.03
2019-05-15T02:43:24.268Z,96.22
2019-05-15T02:44:24.238Z,96.31
2019-05-15T02:45:24.198Z,96.70
2019-05-15T02:46:24.198Z,96.31
2019-05-15T02:47:24.129Z,96.31
2019-05-15T02:48:24.107Z,95.56
2019-05-15T02:49:24.071Z,95.08
2019-05-15T02:50:24.046Z,95.75
2019-05-15T02:51:24.068Z,96.03
2019-05-15T02:52:23.973Z,95.65
2019-05-15T02:53:23.953Z,96.31
2019-05-15T02:54:23.906Z,97.74
2019-05-15T02:55:23.968Z,96.41
2019-05-15T02:56:23.832Z,97.27
2019-05-15T02:57:23.806Z,95.94
2019-05-15T02:58:23.846Z,96.22
2019-05-15T02:59:23.738Z,97.17
2019-05-15T03:00:37.797Z,97.17
2019-05-15T03:01:23.681Z,96.60
2019-05-15T03:02:23.773Z,96.22
2019-05-15T03:03:23.701Z,96.60
2019-05-15T03:04:23.575Z,95.75
2019-05-15T03:05:23.533Z,96.22
2019-05-15T03:06:23.506Z,96.70
2019-05-15T03:07:23.502Z,96.41
2019-05-15T03:08:23.439Z,96.03
2019-05-15T03:09:23.435Z,96.22
2019-05-15T03:10:23.375Z,96.12
2019-05-15T03:11:23.340Z,97.08
2019-05-15T03:12:23.341Z,97.08
2019-05-15T03:13:23.276Z,96.98
2019-05-15T03:14:23.236Z,97.65
2019-05-15T03:15:23.203Z,96.60
2019-05-15T03:16:23.177Z,97.08
2019-05-15T03:17:23.180Z,96.84
2019-05-15T03:18:23.108Z,96.94
2019-05-15T03:19:23.085Z,97.41
2019-05-15T03:20:23.049Z,98.27
2019-05-15T03:21:23.011Z,98.17
2019-05-15T03:22:23.045Z,98.27
2019-05-15T03:23:22.944Z,98.74
2019-05-15T03:24:22.907Z,98.93
2019-05-15T03:25:22.875Z,99.60
2019-05-15T03:26:22.841Z,98.74
2019-05-15T03:27:22.881Z,99.02
2019-05-15T03:28:22.771Z,99.41
2019-05-15T03:29:22.738Z,98.74
2019-05-15T03:30:22.710Z,98.65
2019-05-15T03:31:40.821Z,99.31
2019-05-15T03:32:32.897Z,98.74
2019-05-15T03:33:28.219Z,98.93
2019-05-15T03:34:28.835Z,99.31
2019-05-15T03:35:23.478Z,99.02
2019-05-15T03:36:24.082Z,99.41
2019-05-15T03:37:22.910Z,99.99
2019-05-15T03:38:22.449Z,99.50
2019-05-15T03:39:22.405Z,99.50
2019-05-15T03:40:22.378Z,99.60
2019-05-15T03:41:22.367Z,99.88
2019-05-15T03:42:22.316Z,99.31
2019-05-15T03:43:22.274Z,99.99
2019-05-15T03:44:22.245Z,99.99
2019-05-15T03:45:22.273Z,99.79
2019-05-15T03:46:22.173Z,99.60
2019-05-15T03:47:22.153Z,99.22
2019-05-15T03:48:22.106Z,99.41
2019-05-15T03:49:22.174Z,99.79
2019-05-15T03:50:22.072Z,99.12
2019-05-15T03:51:22.012Z,99.99
2019-05-15T03:52:21.978Z,99.26
2019-05-15T03:53:21.941Z,99.99
2019-05-15T03:54:21.975Z,99.98
2019-05-15T03:55:21.867Z,99.99
2019-05-15T03:56:21.837Z,99.99
2019-05-15T03:57:23.125Z,99.99
2019-05-15T03:58:21.963Z,99.60
2019-05-15T03:59:21.734Z,99.31
2019-05-15T04:00:21.713Z,99.99
2019-05-15T04:01:30.179Z,99.50
2019-05-15T04:02:21.639Z,99.31
2019-05-15T04:03:21.607Z,99.84
2019-05-15T04:04:21.611Z,99.99
2019-05-15T04:05:21.547Z,99.99
2019-05-15T04:06:21.511Z,99.99
2019-05-15T04:07:21.476Z,99.99
2019-05-15T04:08:21.508Z,99.88
2019-05-15T04:09:21.416Z,99.50
2019-05-15T04:10:21.377Z,99.79
2019-05-15T04:11:21.343Z,99.99
2019-05-15T04:12:21.334Z,99.69
2019-05-15T04:13:21.374Z,99.60
2019-05-15T04:14:21.240Z,99.41
2019-05-15T04:15:21.219Z,99.99
2019-05-15T04:16:21.173Z,99.99
2019-05-15T04:17:21.241Z,99.99
2019-05-15T04:18:21.104Z,99.22
2019-05-15T04:19:21.072Z,99.99
2019-05-15T04:20:21.050Z,99.69
2019-05-15T04:21:21.009Z,99.99
2019-05-15T04:22:21.087Z,99.31
2019-05-15T04:23:20.940Z,99.50
2019-05-15T04:24:20.928Z,99.99
2019-05-15T04:25:20.872Z,99.99
2019-05-15T04:26:20.836Z,99.50
2019-05-15T04:27:20.820Z,99.60
2019-05-15T04:28:20.833Z,99.41
2019-05-15T04:29:20.822Z,99.50
2019-05-15T04:30:20.710Z,99.69
2019-05-15T04:31:20.673Z,99.12
2019-05-15T04:32:20.642Z,99.99
2019-05-15T04:33:20.735Z,99.98
2019-05-15T04:34:20.598Z,99.31
2019-05-15T04:35:20.541Z,99.60
2019-05-15T04:36:20.518Z,99.99
2019-05-15T04:37:20.510Z,99.99
2019-05-15T04:38:20.434Z,99.98
2019-05-15T04:39:20.397Z,99.69
2019-05-15T04:40:20.370Z,99.69
2019-05-15T04:41:20.371Z,99.69
2019-05-15T04:42:20.566Z,99.99
2019-05-15T04:43:20.283Z,99.99
2019-05-15T04:44:20.230Z,99.99
2019-05-15T04:45:20.220Z,99.99
2019-05-15T04:46:20.245Z,99.99
2019-05-15T04:47:20.139Z,99.99
2019-05-15T04:48:20.304Z,99.99
2019-05-15T04:49:20.135Z,99.99
2019-05-15T04:50:20.112Z,99.99
2019-05-15T04:51:19.996Z,99.99
2019-05-15T04:52:19.966Z,99.99
2019-05-15T04:53:19.930Z,99.99
2019-05-15T04:54:20.286Z,99.99
2019-05-15T04:55:20.021Z,99.99
2019-05-15T04:56:19.834Z,99.99
2019-05-15T04:57:19.843Z,99.99
2019-05-15T04:58:21.055Z,99.74
2019-05-15T04:59:20.007Z,99.99
2019-05-15T05:00:19.926Z,99.99
2019-05-15T05:01:20.239Z,99.99
2019-05-15T05:02:26.514Z,99.99
2019-05-15T05:03:20.423Z,99.99
2019-05-15T05:04:19.579Z,99.99
2019-05-15T05:05:19.533Z,99.99
2019-05-15T05:06:19.584Z,99.99
2019-05-15T05:07:19.474Z,99.74
2019-05-15T05:08:20.453Z,99.36
2019-05-15T05:09:20.022Z,99.79
2019-05-15T05:10:19.727Z,99.93
2019-05-15T05:11:23.571Z,99.17
2019-05-15T05:12:19.544Z,99.46
2019-05-15T05:13:20.202Z,99.99
2019-05-15T05:14:19.235Z,99.74
2019-05-15T05:15:19.203Z,99.99
2019-05-15T05:16:19.383Z,99.55
2019-05-15T05:17:19.679Z,99.99
2019-05-15T05:18:19.453Z,99.55
2019-05-15T05:19:19.721Z,99.84
2019-05-15T05:20:19.039Z,99.27
2019-05-15T05:21:19.066Z,99.17
2019-05-15T05:22:18.987Z,98.60
2019-05-15T05:23:19.512Z,99.74
2019-05-15T05:24:18.967Z,99.65
2019-05-15T05:25:18.920Z,99.17
2019-05-15T05:26:18.841Z,99.55
2019-05-15T05:27:18.917Z,99.36
2019-05-15T05:28:18.796Z,98.41
2019-05-15T05:29:18.744Z,98.27
2019-05-15T05:30:19.082Z,98.18
2019-05-15T05:31:19.238Z,97.79
2019-05-15T05:32:31.342Z,98.27
2019-05-15T05:33:18.662Z,98.65
2019-05-15T05:34:19.408Z,98.55
2019-05-15T05:35:18.615Z,97.79
2019-05-15T05:36:18.706Z,98.18
2019-05-15T05:37:18.578Z,98.46
2019-05-15T05:38:19.270Z,97.79
2019-05-15T05:39:19.967Z,98.46
2019-05-15T05:40:19.029Z,97.31
2019-05-15T05:41:18.975Z,97.22
2019-05-15T05:42:18.587Z,96.65
2019-05-15T05:43:18.511Z,96.12
2019-05-15T05:44:18.931Z,96.70
2019-05-15T05:45:18.230Z,96.08
2019-05-15T05:46:18.550Z,95.65
2019-05-15T05:47:18.342Z,95.94
2019-05-15T05:48:18.689Z,95.46
2019-05-15T05:49:18.489Z,95.08
2019-05-15T05:50:18.310Z,95.94
2019-05-15T05:51:19.025Z,95.27
2019-05-15T05:52:18.570Z,94.79
2019-05-15T05:53:17.950Z,95.08
2019-05-15T05:54:18.341Z,94.98
2019-05-15T05:55:17.923Z,94.98
2019-05-15T05:56:18.229Z,94.51
2019-05-15T05:57:19.375Z,95.08
2019-05-15T05:58:19.563Z,95.46
2019-05-15T05:59:18.592Z,95.75
2019-05-15T06:00:18.176Z,94.13
2019-05-15T06:01:18.741Z,93.93
2019-05-15T06:02:18.609Z,93.84
2019-05-15T06:03:19.735Z,94.03
2019-05-15T06:04:18.558Z,93.65
2019-05-15T06:05:18.994Z,93.84
2019-05-15T06:06:18.581Z,92.50
2019-05-15T06:07:18.522Z,92.89
2019-05-15T06:08:19.472Z,93.08
2019-05-15T06:09:18.269Z,92.46
2019-05-15T06:10:18.283Z,91.69
2019-05-15T06:11:18.425Z,91.08
2019-05-15T06:12:18.931Z,90.45
2019-05-15T06:13:18.529Z,90.17
2019-05-15T06:14:18.329Z,89.50
2019-05-15T06:15:17.969Z,89.22
2019-05-15T06:16:18.970Z,89.69
2019-05-15T06:17:19.054Z,89.40
2019-05-15T06:18:19.729Z,89.03
2019-05-15T06:19:18.263Z,88.26
2019-05-15T06:20:18.572Z,87.79
2019-05-15T06:21:17.991Z,87.69
2019-05-15T06:22:18.791Z,91.13
2019-05-15T06:23:22.953Z,96.32
2019-05-15T06:24:18.022Z,90.50
2019-05-15T06:25:19.795Z,89.93
2019-05-15T06:26:19.363Z,90.50
2019-05-15T06:27:16.860Z,87.07
2019-05-15T06:28:19.701Z,88.21
2019-05-15T06:29:17.905Z,87.35
2019-05-15T06:30:22.245Z,88.12
2019-05-15T06:31:18.806Z,88.12
2019-05-15T06:32:19.234Z,86.30
2019-05-15T06:33:18.746Z,85.16
2019-05-15T06:34:17.861Z,84.11
2019-05-15T06:35:19.284Z,84.11
2019-05-15T06:36:18.000Z,81.63
2019-05-15T06:37:19.450Z,81.35
2019-05-15T06:38:18.953Z,80.11
2019-05-15T06:39:17.915Z,80.87
2019-05-15T06:40:18.329Z,81.92
2019-05-15T06:41:18.184Z,80.77
2019-05-15T06:42:18.612Z,78.86
2019-05-15T06:43:18.821Z,77.91
2019-05-15T06:44:18.573Z,76.96
2019-05-15T06:45:16.259Z,78.52
2019-05-15T06:46:18.535Z,78.62
2019-05-15T06:47:18.021Z,77.28
2019-05-15T06:48:18.118Z,77.86
2019-05-15T06:49:18.021Z,79.57
2019-05-15T06:50:17.959Z,77.57
2019-05-15T06:51:18.113Z,77.28
2019-05-15T06:52:18.130Z,77.67
2019-05-15T06:53:15.997Z,75.66
2019-05-15T06:54:15.968Z,76.14
2019-05-15T06:55:18.196Z,75.18
2019-05-15T06:56:18.565Z,73.66
2019-05-15T06:57:18.224Z,72.51
2019-05-15T06:58:18.662Z,72.03
2019-05-15T06:59:17.905Z,72.42
2019-05-15T07:00:15.769Z,71.66
2019-05-15T07:01:15.742Z,71.18
2019-05-15T07:02:15.724Z,70.22
2019-05-15T07:03:24.019Z,70.32
2019-05-15T07:04:18.019Z,70.22
2019-05-15T07:05:18.247Z,70.79
2019-05-15T07:06:17.952Z,70.92
2019-05-15T07:07:18.055Z,70.26
2019-05-15T07:08:18.016Z,71.12
2019-05-15T07:09:17.807Z,71.31
2019-05-15T07:10:15.454Z,71.41
2019-05-15T07:11:15.422Z,70.83
2019-05-15T07:12:15.389Z,71.12
2019-05-15T07:13:15.365Z,71.21
2019-05-15T07:14:15.328Z,71.12
2019-05-15T07:15:15.293Z,69.78
2019-05-15T07:16:15.262Z,68.73
2019-05-15T07:17:17.414Z,65.67
2019-05-15T07:18:15.205Z,65.30
2019-05-15T07:19:15.165Z,65.10
2019-05-15T07:20:15.138Z,63.76
2019-05-15T07:21:18.244Z,63.39
2019-05-15T07:22:15.074Z,63.96
2019-05-15T07:23:15.047Z,63.67
2019-05-15T07:24:15.010Z,62.62
2019-05-15T07:25:15.031Z,63.10
2019-05-15T07:26:14.953Z,62.62
2019-05-15T07:27:14.909Z,61.57
2019-05-15T07:28:14.885Z,62.24
2019-05-15T07:29:14.847Z,62.24
2019-05-15T07:30:14.826Z,63.10
2019-05-15T07:31:14.789Z,62.65
2019-05-15T07:32:14.815Z,62.75
2019-05-15T07:33:14.725Z,60.55
2019-05-15T07:34:14.694Z,61.00
2019-05-15T07:35:14.671Z,60.74
2019-05-15T07:36:14.705Z,59.88
2019-05-15T07:37:14.591Z,60.74
2019-05-15T07:38:14.586Z,60.55
2019-05-15T07:39:14.534Z,59.98
2019-05-15T07:40:14.501Z,59.02
2019-05-15T07:41:14.475Z,59.28
2019-05-15T07:42:14.474Z,59.19
2019-05-15T07:43:14.407Z,60.36
2019-05-15T07:44:14.375Z,60.07
2019-05-15T07:45:14.346Z,59.98
2019-05-15T07:46:14.400Z,60.27
2019-05-15T07:47:14.279Z,59.88
2019-05-15T07:48:14.334Z,58.73
2019-05-15T07:49:14.218Z,57.59
2019-05-15T07:50:14.200Z,57.11
2019-05-15T07:51:14.159Z,55.87
2019-05-15T07:52:14.208Z,56.16
2019-05-15T07:53:14.094Z,54.91
2019-05-15T07:54:14.069Z,53.51
2019-05-15T07:55:14.033Z,52.65
2019-05-15T07:56:14.005Z,51.60
2019-05-15T07:57:13.962Z,53.22
2019-05-15T07:58:13.962Z,53.99
2019-05-15T07:59:13.895Z,53.89
2019-05-15T08:00:13.991Z,53.89
2019-05-15T08:01:13.908Z,53.99
2019-05-15T08:02:13.889Z,53.32
2019-05-15T08:03:13.824Z,52.65
2019-05-15T08:04:24.762Z,52.36
2019-05-15T08:05:13.713Z,51.98
2019-05-15T08:06:13.677Z,51.70
2019-05-15T08:07:13.720Z,52.65
2019-05-15T08:08:13.618Z,52.26
2019-05-15T08:09:15.233Z,52.94
2019-05-15T08:10:13.573Z,53.51
2019-05-15T08:11:21.937Z,52.84
2019-05-15T08:12:13.538Z,53.22
2019-05-15T08:13:13.552Z,53.22
2019-05-15T08:14:13.466Z,53.61
2019-05-15T08:15:13.398Z,53.80
2019-05-15T08:16:13.368Z,53.61
2019-05-15T08:17:13.355Z,53.70
2019-05-15T08:18:13.345Z,53.51
2019-05-15T08:19:13.271Z,52.67
2019-05-15T08:20:13.241Z,52.84
2019-05-15T08:21:13.236Z,53.25
2019-05-15T08:22:15.136Z,53.06
2019-05-15T08:23:13.154Z,52.58
2019-05-15T08:24:13.123Z,53.34
2019-05-15T08:25:26.678Z,52.65
2019-05-15T08:26:13.100Z,53.06
2019-05-15T08:27:13.023Z,52.67
2019-05-15T08:28:12.997Z,52.96
2019-05-15T08:29:12.960Z,53.92
2019-05-15T08:30:12.949Z,52.48
2019-05-15T08:31:12.904Z,52.96
2019-05-15T08:32:12.907Z,52.39
2019-05-15T08:33:12.839Z,52.10
2019-05-15T08:34:16.317Z,52.48
2019-05-15T08:35:12.914Z,52.77
2019-05-15T08:36:12.783Z,53.82
2019-05-15T08:37:12.760Z,53.25
2019-05-15T08:38:14.340Z,53.06
2019-05-15T08:39:12.701Z,53.44
2019-05-15T08:40:12.617Z,52.51
2019-05-15T08:41:15.516Z,52.51
2019-05-15T08:42:12.569Z,51.93
2019-05-15T08:43:12.529Z,52.22
2019-05-15T08:44:12.496Z,52.42
2019-05-15T08:45:12.509Z,52.51
2019-05-15T08:46:12.460Z,52.51
2019-05-15T08:47:12.419Z,52.22
2019-05-15T08:48:12.369Z,52.70
2019-05-15T08:49:12.343Z,52.89
2019-05-15T08:50:12.370Z,52.99
2019-05-15T08:51:12.380Z,53.28
2019-05-15T08:52:12.343Z,53.08
2019-05-15T08:53:12.263Z,53.75
2019-05-15T08:54:12.196Z,54.23
2019-05-15T08:55:12.163Z,54.04
2019-05-15T08:56:14.800Z,54.33
2019-05-15T08:57:12.168Z,54.33
2019-05-15T08:58:13.991Z,54.33
2019-05-15T08:59:12.034Z,54.04
2019-05-15T09:00:12.037Z,54.07
2019-05-15T09:01:12.040Z,54.33
2019-05-15T09:02:11.946Z,54.43
2019-05-15T09:03:11.912Z,54.36
2019-05-15T09:04:26.213Z,54.14
2019-05-15T09:05:11.897Z,53.18
2019-05-15T09:06:11.844Z,54.33
2019-05-15T09:07:11.813Z,54.52
2019-05-15T09:08:11.839Z,54.61
2019-05-15T09:09:11.732Z,54.71
2019-05-15T09:10:11.691Z,54.93
2019-05-15T09:11:11.709Z,54.23
2019-05-15T09:12:11.683Z,54.16
2019-05-15T09:13:11.610Z,54.74
2019-05-15T09:14:11.577Z,54.36
2019-05-15T09:15:11.546Z,54.93
2019-05-15T09:16:11.593Z,54.19
2019-05-15T09:17:11.537Z,53.69
2019-05-15T09:18:15.805Z,53.78
2019-05-15T09:19:11.419Z,54.26
2019-05-15T09:20:11.398Z,54.26
2019-05-15T09:21:11.424Z,54.74
2019-05-15T09:22:11.332Z,54.93
2019-05-15T09:23:11.295Z,54.83
2019-05-15T09:24:11.267Z,55.51
2019-05-15T09:25:11.242Z,55.02
2019-05-15T09:26:11.211Z,54.83
2019-05-15T09:27:11.189Z,54.74
2019-05-15T09:28:11.202Z,55.60
2019-05-15T09:29:11.199Z,55.51
2019-05-15T09:30:11.158Z,55.41
2019-05-15T09:31:11.112Z,54.77
2019-05-15T09:32:12.571Z,55.44
2019-05-15T09:33:10.998Z,55.15
2019-05-15T09:34:10.997Z,55.53
2019-05-15T09:35:10.947Z,54.77
2019-05-15T09:36:10.951Z,54.77
2019-05-15T09:37:10.880Z,55.44
2019-05-15T09:38:10.851Z,54.67
2019-05-15T09:39:13.385Z,54.19
2019-05-15T09:40:10.785Z,53.81
2019-05-15T09:41:10.764Z,54.86
2019-05-15T09:42:10.741Z,54.86
2019-05-15T09:43:11.478Z,55.63
2019-05-15T09:44:10.663Z,55.24
2019-05-15T09:45:10.630Z,54.96
2019-05-15T09:46:10.642Z,55.44
2019-05-15T09:47:10.575Z,54.19
2019-05-15T09:48:14.476Z,54.50
2019-05-15T09:49:10.529Z,54.96
2019-05-15T09:50:10.512Z,54.48
2019-05-15T09:51:10.471Z,55.05
2019-05-15T09:52:10.466Z,55.05
2019-05-15T09:53:10.418Z,54.48
2019-05-15T09:54:10.392Z,54.57
2019-05-15T09:55:10.353Z,54.60
2019-05-15T09:56:10.341Z,55.65
2019-05-15T09:57:11.037Z,55.18
2019-05-15T09:58:10.282Z,55.46
2019-05-15T09:59:10.258Z,55.56
2019-05-15T10:00:10.212Z,55.46
2019-05-15T10:01:10.180Z,55.46
2019-05-15T10:02:10.166Z,55.56
2019-05-15T10:03:10.132Z,55.65
2019-05-15T10:04:10.129Z,54.99
2019-05-15T10:05:11.341Z,55.65
2019-05-15T10:06:10.007Z,55.85
2019-05-15T10:07:09.973Z,55.75
2019-05-15T10:08:09.987Z,55.40
2019-05-15T10:09:09.952Z,55.78
2019-05-15T10:10:09.954Z,55.58
2019-05-15T10:11:09.899Z,55.78
2019-05-15T10:12:09.818Z,56.26
2019-05-15T10:13:09.840Z,55.49
2019-05-15T10:14:10.053Z,56.26
2019-05-15T10:15:11.647Z,55.78
2019-05-15T10:16:09.715Z,56.00
2019-05-15T10:17:09.715Z,54.34
2019-05-15T10:18:10.023Z,53.60
2019-05-15T10:19:09.647Z,53.70
2019-05-15T10:20:09.624Z,55.33
2019-05-15T10:21:09.567Z,54.56
2019-05-15T10:22:09.863Z,54.56
2019-05-15T10:23:09.532Z,54.63
2019-05-15T10:24:09.678Z,54.53
2019-05-15T10:25:09.499Z,54.63
2019-05-15T10:26:13.822Z,55.11
2019-05-15T10:27:09.400Z,55.21
2019-05-15T10:28:09.947Z,55.49
2019-05-15T10:29:09.425Z,56.07
2019-05-15T10:30:09.390Z,55.40
2019-05-15T10:31:09.584Z,56.07
2019-05-15T10:32:09.240Z,56.16
2019-05-15T10:33:09.228Z,56.67
2019-05-15T10:34:09.358Z,56.29
2019-05-15T10:35:23.706Z,55.80
2019-05-15T10:36:09.129Z,55.42
2019-05-15T10:37:09.153Z,55.90
2019-05-15T10:38:09.095Z,54.94
2019-05-15T10:39:09.218Z,54.66
2019-05-15T10:40:09.249Z,53.60
2019-05-15T10:41:14.801Z,53.99
2019-05-15T10:42:08.989Z,54.56
2019-05-15T10:43:09.377Z,54.94
2019-05-15T10:44:09.397Z,53.60
2019-05-15T10:45:08.900Z,54.27
2019-05-15T10:46:13.108Z,55.42
2019-05-15T10:47:08.952Z,55.74
2019-05-15T10:48:09.553Z,55.64
2019-05-15T10:49:08.923Z,55.07
2019-05-15T10:50:08.704Z,53.44
2019-05-15T10:51:10.140Z,53.24
2019-05-15T10:52:11.106Z,52.86
2019-05-15T10:53:11.203Z,53.91
2019-05-15T10:54:08.722Z,54.21
2019-05-15T10:55:09.499Z,53.53
2019-05-15T10:56:09.093Z,53.63
2019-05-15T10:57:08.774Z,54.71
2019-05-15T10:58:16.680Z,53.94
2019-05-15T10:59:08.667Z,53.24
2019-05-15T11:00:08.402Z,53.56
2019-05-15T11:01:11.213Z,53.94
2019-05-15T11:02:08.674Z,55.10
2019-05-15T11:03:08.914Z,55.29
2019-05-15T11:04:09.136Z,54.52
2019-05-15T11:05:09.336Z,53.66
2019-05-15T11:06:09.062Z,52.91
2019-05-15T11:07:09.841Z,53.49
2019-05-15T11:08:08.447Z,53.39
2019-05-15T11:09:08.632Z,53.68
2019-05-15T11:10:08.743Z,53.49
2019-05-15T11:11:09.188Z,53.68
2019-05-15T11:12:08.743Z,53.58
2019-05-15T11:13:08.961Z,52.14
2019-05-15T11:14:09.050Z,51.76
2019-05-15T11:15:11.018Z,52.72
2019-05-15T11:16:07.953Z,52.62
2019-05-15T11:17:07.911Z,52.62
2019-05-15T11:18:09.299Z,52.05
2019-05-15T11:19:08.086Z,52.46
2019-05-15T11:20:08.513Z,52.08
2019-05-15T11:21:08.371Z,51.31
2019-05-15T11:22:09.039Z,52.17
2019-05-15T11:23:08.149Z,51.21
2019-05-15T11:24:08.749Z,51.88
2019-05-15T11:25:09.957Z,52.08
2019-05-15T11:26:08.781Z,51.14
2019-05-15T11:27:09.931Z,50.51
2019-05-15T11:28:08.226Z,50.06
2019-05-15T11:29:09.690Z,48.47
2019-05-15T11:30:07.792Z,46.93
2019-05-15T11:31:10.459Z,46.28
2019-05-15T11:32:08.879Z,45.53
2019-05-15T11:33:09.565Z,46.30
2019-05-15T11:34:10.310Z,44.56
2019-05-15T11:35:07.482Z,44.85
2019-05-15T11:36:07.388Z,45.20
2019-05-15T11:37:07.381Z,47.80
2019-05-15T11:38:10.164Z,47.10
2019-05-15T11:39:08.421Z,48.16
2019-05-15T11:40:10.282Z,48.52
2019-05-15T11:41:08.675Z,48.06
2019-05-15T11:42:09.021Z,47.85
2019-05-15T11:43:08.511Z,46.98
2019-05-15T11:44:07.241Z,46.31
2019-05-15T11:45:07.209Z,46.40
2019-05-15T11:46:09.689Z,44.96
2019-05-15T11:47:07.079Z,45.80
2019-05-15T11:48:08.952Z,45.99
2019-05-15T11:49:09.423Z,45.99
2019-05-15T11:50:08.488Z,45.13
2019-05-15T11:51:09.445Z,46.11
2019-05-15T11:52:08.856Z,46.59
2019-05-15T11:53:08.718Z,46.78
2019-05-15T11:54:08.219Z,46.14
2019-05-15T11:55:08.414Z,46.04
2019-05-15T11:56:09.300Z,46.45
2019-05-15T11:57:08.632Z,45.36
2019-05-15T11:58:09.057Z,45.65
2019-05-15T11:59:08.507Z,45.65
2019-05-15T12:00:14.915Z,45.46
2019-05-15T12:01:08.666Z,45.53
2019-05-15T12:02:08.554Z,44.86
2019-05-15T12:03:08.916Z,45.03
2019-05-15T12:04:09.145Z,45.92
2019-05-15T12:05:08.950Z,45.73
2019-05-15T12:06:15.988Z,45.15
2019-05-15T12:07:08.676Z,45.80
2019-05-15T12:08:08.642Z,46.28
2019-05-15T12:09:08.936Z,46.19
2019-05-15T12:10:09.893Z,46.11
2019-05-15T12:11:09.926Z,46.59
2019-05-15T12:12:08.699Z,46.21
2019-05-15T12:13:06.396Z,46.50
2019-05-15T12:14:08.369Z,47.29
2019-05-15T12:15:06.366Z,45.97
2019-05-15T12:16:06.322Z,46.15
2019-05-15T12:17:12.492Z,46.15
2019-05-15T12:18:08.820Z,44.90
2019-05-15T12:19:13.567Z,43.34
2019-05-15T12:20:07.191Z,44.32
2019-05-15T12:21:06.211Z,46.25
2019-05-15T12:22:06.167Z,45.20
2019-05-15T12:23:08.693Z,44.62
2019-05-15T12:24:08.519Z,44.52
2019-05-15T12:25:09.782Z,45.20
2019-05-15T12:26:08.821Z,44.13
2019-05-15T12:27:15.326Z,43.75
2019-05-15T12:28:09.111Z,43.58
2019-05-15T12:29:05.975Z,43.29
2019-05-15T12:30:09.790Z,43.58
2019-05-15T12:31:05.924Z,42.63
2019-05-15T12:32:25.385Z,42.32
2019-05-15T12:33:05.871Z,42.90
2019-05-15T12:34:05.849Z,44.08
2019-05-15T12:35:05.829Z,44.20
2019-05-15T12:36:05.796Z,44.51
2019-05-15T12:37:09.476Z,43.24
2019-05-15T12:38:05.748Z,42.83
2019-05-15T12:39:10.597Z,43.91
2019-05-15T13:00:07.407Z,41.78
2019-05-15T13:01:14.602Z,41.71
2019-05-15T13:02:05.173Z,41.13
2019-05-15T13:03:05.126Z,40.84
2019-05-15T13:04:05.125Z,41.15
2019-05-15T13:05:05.082Z,41.08
2019-05-15T13:06:05.110Z,40.78
2019-05-15T13:07:13.789Z,40.09
2019-05-15T13:08:05.016Z,39.43
2019-05-15T13:09:04.989Z,40.34
2019-05-15T13:10:04.957Z,39.78
2019-05-15T13:11:09.510Z,39.61
2019-05-15T13:12:04.936Z,38.64